Time;durP1;ratioP1;P1;durP2;ratioP2;P2;SDS_P1;SDS_P2;PMS_P1;PMS_P2;Temp;Humidity;BMP_temperature;BMP_pressure;BME280_temperature;BME280_humidity;BME280_pressure;Samples;Min_cycle;Max_cycle;Signal;HPM_P1;HPM_P2
2021/12/04 00:02:10;;;;;;;12.15;10.85;;;1.80;1.00;;;1.84;78.01;99781.13;5076330;28;20649;-73
2021/12/04 00:04:42;;;;;;;17.10;12.18;;;1.80;1.00;;;1.87;78.15;99775.44;5076066;28;20208;-74
2021/12/04 00:07:11;;;;;;;13.32;10.27;;;1.80;99.90;;;1.84;78.06;99771.25;5076154;28;20188;-73
2021/12/04 00:09:44;;;;;;;17.90;8.60;;;1.80;1.00;;;1.70;78.53;99775.50;5075978;28;20266;-74
2021/12/04 00:12:14;;;;;;;19.08;11.73;;;1.70;1.00;;;1.93;78.25;99770.25;5075195;28;20184;-75
2021/12/04 00:14:44;;;;;;;16.17;11.60;;;1.90;1.00;;;1.86;78.10;99761.25;5075016;28;20261;-75
2021/12/04 00:17:13;;;;;;;13.25;10.35;;;1.90;99.90;;;1.95;77.57;99768.22;5075960;28;20613;-73
2021/12/04 00:19:42;;;;;;;13.50;11.23;;;1.90;1.00;;;1.84;78.16;99771.25;5076023;28;20618;-73
2021/12/04 00:22:12;;;;;;;18.45;11.27;;;1.90;99.90;;;1.95;78.08;99762.06;5076793;28;20206;-75
2021/12/04 00:24:40;;;;;;;14.35;11.35;;;1.90;1.00;;;1.99;77.73;99771.38;5076691;28;20302;-75
2021/12/04 00:27:09;;;;;;;21.23;13.73;;;2.00;1.00;;;1.98;77.71;99767.06;5075096;28;20184;-74
2021/12/04 00:29:41;;;;;;;14.90;11.20;;;2.00;99.90;;;1.90;78.16;99764.41;5075572;28;20176;-75
2021/12/04 00:32:13;;;;;;;14.20;11.45;;;2.00;99.90;;;1.90;77.54;99765.25;5075090;28;20231;-74
2021/12/04 00:34:55;;;;;;;18.27;11.82;;;1.90;99.90;;;1.93;78.02;99762.25;5076221;28;20265;-76
2021/12/04 00:43:26;;;;;;;17.33;11.52;;;2.00;99.90;;;1.91;77.99;99761.56;5075007;28;20252;-74
2021/12/04 00:51:27;;;;;;;13.55;11.52;;;1.90;1.00;;;1.90;78.26;99748.41;5075422;28;20263;-73
2021/12/04 00:53:56;;;;;;;16.70;12.10;;;1.90;1.00;;;1.97;78.07;99741.38;5075296;28;20215;-73
2021/12/04 00:56:25;;;;;;;13.00;10.98;;;1.90;1.00;;;1.87;78.24;99749.59;5075073;28;20174;-73
2021/12/04 00:58:54;;;;;;;18.45;13.10;;;1.90;1.00;;;2.06;78.13;99749.16;5073843;28;20208;-72
2021/12/04 01:01:22;;;;;;;14.60;11.07;;;2.00;99.90;;;1.82;77.98;99751.94;5075478;28;20204;-72
2021/12/04 01:03:51;;;;;;;14.45;11.05;;;1.90;1.00;;;1.85;78.51;99743.59;5075086;28;20231;-73
2021/12/04 01:06:19;;;;;;;15.55;11.88;;;1.90;1.00;;;1.86;78.44;99742.59;5073884;28;20726;-73
2021/12/04 01:08:48;;;;;;;16.58;12.10;;;1.90;67.80;;;1.89;78.69;99742.22;5074978;28;20579;-73
2021/12/04 01:11:18;;;;;;;19.38;12.50;;;1.90;99.90;;;1.90;78.58;99741.22;5075151;28;20211;-73
2021/12/04 01:13:54;;;;;;;22.13;15.55;;;1.90;99.90;;;2.04;78.07;99748.50;5074778;28;20210;-73
2021/12/04 01:25:52;;;;;;;14.05;11.52;;;2.00;1.00;;;2.10;77.84;99745.13;5094047;28;20275;-73
2021/12/04 01:28:21;;;;;;;14.63;9.98;;;2.10;1.00;;;1.99;78.06;99742.84;5092219;28;20714;-73
2021/12/04 01:30:51;;;;;;;14.98;11.27;;;2.00;1.00;;;2.09;77.97;99743.47;5092409;28;20199;-73
2021/12/04 01:33:19;;;;;;;18.50;14.13;;;2.10;1.00;;;2.16;78.13;99743.59;5092334;28;20745;-73
2021/12/04 01:35:48;;;;;;;13.82;11.57;;;2.10;1.00;;;2.00;78.59;99747.19;5092550;28;20233;-73
2021/12/04 01:38:16;;;;;;;17.92;12.32;;;2.10;1.00;;;1.96;78.66;99743.22;5092221;28;20203;-73
2021/12/04 01:40:45;;;;;;;17.58;14.68;;;2.00;36.00;;;2.03;79.00;99746.03;5092517;28;20548;-74
2021/12/04 01:43:13;;;;;;;17.17;13.55;;;2.00;1.00;;;2.19;78.41;99741.41;5091999;28;20654;-73
2021/12/04 01:45:44;;;;;;;19.60;14.68;;;2.10;95.30;;;2.09;78.89;99743.47;5092737;28;20290;-73
2021/12/04 01:48:12;;;;;;;15.20;13.20;;;2.10;99.90;;;2.14;78.61;99737.59;5095646;28;20200;-73
2021/12/04 01:50:41;;;;;;;18.80;16.02;;;2.10;99.90;;;2.07;78.88;99737.50;5097524;28;20182;-73
2021/12/04 01:53:09;;;;;;;18.38;14.05;;;2.10;99.90;;;1.96;79.07;99732.53;5097427;28;20229;-72
2021/12/04 01:55:38;;;;;;;20.27;15.20;;;2.00;99.90;;;2.07;79.29;99729.47;5097651;28;20180;-72
2021/12/04 01:58:07;;;;;;;17.73;14.15;;;2.00;99.90;;;2.09;78.99;99735.47;5096562;28;20180;-72
2021/12/04 02:00:40;;;;;;;21.35;15.32;;;2.10;99.90;;;2.15;79.08;99734.75;5089058;28;20223;-73
2021/12/04 02:03:13;;;;;;;17.45;11.25;;;2.10;99.90;;;2.05;79.00;99733.31;5075390;28;20218;-73
2021/12/04 02:05:42;;;;;;;17.20;13.90;;;2.00;1.00;;;2.04;79.16;99727.16;5074802;28;20179;-74
2021/12/04 02:08:17;;;;;;;18.80;14.88;;;2.10;1.00;;;2.08;78.94;99731.13;5074627;28;20537;-74
2021/12/04 02:10:49;;;;;;;18.20;14.65;;;2.10;1.00;;;2.00;79.87;99727.66;5074489;28;20578;-73
2021/12/04 02:13:19;;;;;;;23.60;16.35;;;2.00;99.90;;;2.02;79.62;99718.50;5074321;28;20269;-74
2021/12/04 02:15:49;;;;;;;24.77;15.25;;;2.00;99.90;;;2.10;79.21;99713.09;5074255;28;20175;-74
2021/12/04 02:18:21;;;;;;;19.38;15.10;;;2.10;99.90;;;2.04;79.41;99713.81;5074629;28;20196;-73
2021/12/04 02:20:52;;;;;;;18.67;15.93;;;2.00;99.90;;;2.17;78.96;99714.06;5074114;28;20228;-74
2021/12/04 02:23:21;;;;;;;18.40;14.48;;;2.10;99.90;;;2.05;79.10;99715.47;5072045;28;20212;-74
2021/12/04 02:25:50;;;;;;;22.95;17.75;;;2.10;99.90;;;2.10;79.45;99710.44;5073497;28;20180;-73
2021/12/04 02:28:18;;;;;;;21.17;17.83;;;2.10;99.90;;;2.21;79.70;99714.53;5073174;28;20575;-75
2021/12/04 02:30:48;;;;;;;19.67;16.88;;;2.20;99.90;;;2.11;79.60;99714.78;5073188;28;20191;-74
2021/12/04 02:33:18;;;;;;;22.08;17.17;;;2.10;99.90;;;2.05;79.50;99710.13;5073024;28;20278;-74
2021/12/04 02:35:55;;;;;;;20.08;16.30;;;2.10;99.90;;;2.09;79.38;99710.59;5074088;28;20192;-74
2021/12/04 02:38:26;;;;;;;18.67;14.60;;;2.10;99.90;;;2.00;79.60;99711.66;5073047;28;20177;-74
2021/12/04 02:41:00;;;;;;;16.48;14.77;;;2.00;99.90;;;2.19;79.20;99700.53;5072691;28;20200;-73
2021/12/04 02:43:33;;;;;;;24.65;17.00;;;2.10;99.90;;;2.15;79.40;99697.41;5072933;28;20286;-74
2021/12/04 02:46:01;;;;;;;18.48;15.77;;;2.10;99.90;;;1.97;79.32;99702.19;5073132;28;20614;-74
2021/12/04 02:48:30;;;;;;;21.65;17.10;;;2.10;99.90;;;2.10;79.43;99697.09;5072752;28;20173;-74
2021/12/04 02:51:00;;;;;;;20.95;15.82;;;2.10;99.90;;;2.16;79.26;99693.72;5072941;28;20175;-74
2021/12/04 02:53:29;;;;;;;19.83;17.73;;;2.10;99.90;;;2.07;79.34;99694.78;5072831;28;20207;-74
2021/12/04 02:55:57;;;;;;;18.40;16.00;;;2.10;99.90;;;2.09;79.65;99683.91;5072968;28;20594;-74
2021/12/04 02:58:26;;;;;;;17.08;15.27;;;2.10;99.90;;;2.24;79.42;99686.66;5072433;28;20187;-74
2021/12/04 03:00:55;;;;;;;22.27;15.00;;;2.10;99.90;;;2.11;79.49;99682.75;5072748;28;20645;-74
2021/12/04 03:03:24;;;;;;;16.73;12.98;;;2.20;99.90;;;1.99;79.87;99680.66;5072550;28;20200;-75
2021/12/04 03:05:52;;;;;;;15.07;13.10;;;2.10;99.90;;;2.11;79.75;99669.41;5073013;28;20175;-74
2021/12/04 03:08:23;;;;;;;18.52;14.60;;;2.10;99.90;;;2.26;79.37;99672.13;5071797;28;20184;-74
2021/12/04 03:10:53;;;;;;;14.40;12.45;;;2.20;99.90;;;2.27;79.17;99675.66;5073819;28;20172;-74
2021/12/04 03:13:22;;;;;;;15.48;13.38;;;2.20;99.90;;;2.17;79.27;99660.69;5073552;28;20243;-73
2021/12/04 03:15:57;;;;;;;13.75;12.20;;;2.10;99.90;;;2.18;78.97;99662.34;5072843;28;20188;-74
2021/12/04 03:18:27;;;;;;;15.80;12.95;;;2.20;99.90;;;2.15;79.38;99664.53;5072838;28;20183;-73
2021/12/04 03:20:58;;;;;;;18.42;15.38;;;2.10;99.90;;;2.26;79.47;99668.63;5073384;28;20196;-74
2021/12/04 03:23:30;;;;;;;19.85;14.40;;;2.20;99.90;;;2.28;79.23;99666.59;5073338;28;20246;-73
2021/12/04 03:26:01;;;;;;;19.55;15.75;;;2.20;99.90;;;2.38;78.64;99659.19;5081997;28;20202;-72
2021/12/04 03:28:29;;;;;;;16.33;14.50;;;2.30;99.90;;;2.23;79.26;99669.00;5084066;28;20188;-73
2021/12/04 03:31:03;;;;;;;18.88;14.38;;;2.20;99.90;;;2.16;79.34;99663.53;5084961;28;20184;-73
2021/12/04 03:41:52;;;;;;;18.08;16.23;;;2.30;99.90;;;2.42;78.72;99657.84;5089026;28;20172;-73
2021/12/04 03:44:20;;;;;;;22.10;16.75;;;2.30;99.90;;;2.33;79.02;99651.72;5082796;28;20522;-74
2021/12/04 03:46:48;;;;;;;19.65;17.13;;;2.30;99.90;;;2.28;79.17;99651.41;5076765;28;20168;-73
2021/12/04 03:49:17;;;;;;;21.45;17.92;;;2.30;99.90;;;2.45;78.95;99658.31;5072612;28;20181;-75
2021/12/04 03:51:45;;;;;;;26.10;18.40;;;2.40;99.90;;;2.38;79.33;99661.84;5072599;28;20203;-77
2021/12/04 03:54:15;;;;;;;19.98;15.68;;;2.40;99.90;;;2.38;78.82;99660.00;5072161;28;20261;-74
2021/12/04 03:56:44;;;;;;;19.23;16.15;;;2.40;99.90;;;2.30;79.03;99659.25;5072221;28;20185;-74
2021/12/04 03:59:12;;;;;;;18.67;15.50;;;2.30;99.90;;;2.40;78.88;99665.19;5072436;28;20176;-74
2021/12/04 04:01:41;;;;;;;16.20;14.60;;;2.40;99.90;;;2.44;78.82;99661.13;5072393;28;20275;-75
2021/12/04 04:04:09;;;;;;;19.23;16.10;;;2.40;99.90;;;2.36;78.86;99663.88;5072112;28;20266;-74
2021/12/04 04:06:37;;;;;;;21.40;16.23;;;2.40;99.90;;;2.30;79.20;99653.91;5072566;28;20187;-73
2021/12/04 04:09:06;;;;;;;18.75;16.58;;;2.30;99.90;;;2.38;79.19;99653.84;5072177;28;20180;-73
2021/12/04 04:11:36;;;;;;;21.13;15.70;;;2.30;99.90;;;2.52;78.77;99653.06;5072216;28;20179;-73
2021/12/04 04:14:05;;;;;;;15.55;14.02;;;2.40;99.90;;;2.45;78.71;99649.47;5104514;28;20607;-73
2021/12/04 04:16:36;;;;;;;17.52;12.07;;;2.40;99.90;;;2.52;78.72;99642.38;5071945;28;20612;-74
2021/12/04 04:19:05;;;;;;;16.05;12.73;;;2.40;99.90;;;2.36;78.64;99642.53;5070221;28;20203;-74
2021/12/04 04:21:39;;;;;;;13.38;11.98;;;2.40;99.90;;;2.37;78.61;99638.84;5071620;28;20234;-74
2021/12/04 04:24:08;;;;;;;15.45;13.45;;;2.40;99.90;;;2.49;78.33;99642.75;5074931;28;20253;-74
2021/12/04 04:26:41;;;;;;;16.67;14.82;;;2.40;99.90;;;2.36;78.81;99637.19;5075649;28;20607;-72
2021/12/04 04:29:09;;;;;;;16.20;13.07;;;2.40;99.90;;;2.46;78.92;99643.13;5075549;28;20176;-74
2021/12/04 04:31:45;;;;;;;16.48;13.30;;;2.40;99.90;;;2.57;78.34;99645.31;5075508;28;20225;-74
2021/12/04 04:34:23;;;;;;;14.88;13.25;;;2.50;99.90;;;2.53;78.48;99639.53;5074874;28;20261;-73
2021/12/04 04:37:08;;;;;;;15.05;11.98;;;2.50;99.90;;;2.54;78.08;99637.69;5075258;28;20200;-74
2021/12/04 04:59:12;;;;;;;16.65;13.55;;;2.40;99.90;;;2.38;78.59;99619.13;5074212;28;20172;-72
2021/12/04 05:10:21;;;;;;;18.35;16.40;;;2.30;99.90;;;2.56;78.88;99614.31;5072871;28;20633;-74
2021/12/04 05:12:52;;;;;;;19.63;15.93;;;2.40;99.90;;;2.41;79.08;99613.44;5073986;28;20238;-72
2021/12/04 05:15:35;;;;;;;17.63;14.70;;;2.40;99.90;;;2.45;79.08;99609.41;5074363;28;20234;-73
2021/12/04 05:18:13;;;;;;;19.48;15.90;;;2.40;99.90;;;2.31;79.24;99603.03;5074280;28;20683;-74
2021/12/04 05:20:48;;;;;;;18.45;14.93;;;2.30;99.90;;;2.28;79.38;99623.88;5072562;28;20222;-75
2021/12/04 05:23:17;;;;;;;20.70;16.30;;;2.20;99.90;;;2.29;79.44;99613.03;5074125;28;20238;-73
2021/12/04 05:25:45;;;;;;;19.30;16.45;;;2.30;99.90;;;2.37;79.25;99612.16;5073843;28;20218;-72
2021/12/04 05:28:15;;;;;;;19.85;15.60;;;2.30;99.90;;;2.16;79.52;99616.34;5073720;28;20291;-72
2021/12/04 05:30:45;;;;;;;21.33;16.05;;;2.20;99.90;;;2.39;79.22;99604.78;5073965;28;20184;-72
2021/12/04 05:33:13;;;;;;;19.25;15.00;;;2.30;99.90;;;2.38;78.83;99605.78;5072601;28;20212;-72
2021/12/04 05:35:45;;;;;;;17.25;15.43;;;2.30;99.90;;;2.24;79.17;99617.25;5073687;28;20276;-71
2021/12/04 05:38:14;;;;;;;18.60;16.33;;;2.30;99.90;;;2.42;79.09;99609.78;5073536;28;20173;-72
2021/12/04 05:40:43;;;;;;;21.40;17.70;;;2.40;99.90;;;2.18;79.58;99616.97;5073393;28;20242;-73
2021/12/04 05:43:13;;;;;;;18.25;16.00;;;2.20;99.90;;;2.16;79.63;99619.00;5073910;28;20204;-72
2021/12/04 05:45:45;;;;;;;20.38;15.88;;;2.20;99.90;;;2.42;79.10;99620.47;5073537;28;20176;-71
2021/12/04 05:48:19;;;;;;;18.00;15.38;;;2.30;99.90;;;2.49;78.77;99614.19;5073740;28;20690;-73
2021/12/04 05:51:14;;;;;;;20.75;15.82;;;2.40;99.90;;;2.39;78.72;99612.78;5073544;28;20256;-72
2021/12/04 05:53:54;;;;;;;17.23;14.70;;;2.40;99.90;;;2.48;78.42;99606.38;5074687;28;20204;-72
2021/12/04 05:56:23;;;;;;;19.13;15.63;;;2.50;99.90;;;2.29;78.99;99604.19;5075115;28;20657;-73
2021/12/04 05:58:53;;;;;;;18.75;15.13;;;2.30;99.90;;;2.11;79.35;99605.38;5077075;28;20188;-73
2021/12/04 06:01:23;;;;;;;23.30;16.52;;;2.20;99.90;;;2.22;79.53;99605.94;5073649;28;20215;-73
2021/12/04 06:03:53;;;;;;;20.88;17.60;;;2.20;99.90;;;2.26;79.49;99601.91;5073557;28;20335;-73
2021/12/04 06:06:21;;;;;;;18.17;16.20;;;2.20;99.90;;;2.26;78.78;99601.91;5073475;28;20175;-73
2021/12/04 06:08:50;;;;;;;18.00;15.45;;;2.20;99.90;;;2.22;79.16;99608.63;5073660;28;20168;-72
2021/12/04 06:11:18;;;;;;;23.35;16.27;;;2.30;99.90;;;2.27;79.16;99600.91;5074106;28;20195;-73
2021/12/04 06:13:47;;;;;;;21.27;17.65;;;2.20;99.90;;;2.16;79.49;99613.66;5073349;28;20208;-73
2021/12/04 06:16:17;;;;;;;25.08;17.13;;;2.20;99.90;;;2.14;79.42;99607.66;5072894;28;20176;-73
2021/12/04 06:18:47;;;;;;;21.48;18.45;;;2.20;99.90;;;2.25;79.12;99610.91;5073250;28;20177;-73
2021/12/04 06:24:04;;;;;;;17.20;14.98;;;2.20;99.90;;;2.29;78.92;99620.22;5071668;28;20236;-73
2021/12/04 06:26:33;;;;;;;16.98;14.52;;;2.20;99.90;;;2.22;78.82;99620.13;5072753;28;20192;-74
2021/12/04 06:29:02;;;;;;;18.98;14.63;;;2.20;99.90;;;2.14;79.15;99617.50;5071606;28;20189;-72
2021/12/04 06:31:31;;;;;;;16.80;14.55;;;2.10;99.90;;;2.17;79.05;99611.81;5071998;28;20606;-73
2021/12/04 06:34:00;;;;;;;15.63;13.90;;;2.20;99.90;;;2.23;78.81;99615.63;5073179;28;20200;-74
2021/12/04 06:36:31;;;;;;;17.10;14.20;;;2.20;99.90;;;2.18;78.87;99614.28;5073183;28;20257;-73
2021/12/04 06:38:59;;;;;;;15.95;12.70;;;2.20;99.90;;;2.01;79.39;99612.78;5072564;28;20259;-72
2021/12/04 06:41:28;;;;;;;17.20;13.25;;;2.10;99.90;;;2.07;79.76;99609.41;5071858;28;20204;-72
2021/12/04 06:43:56;;;;;;;20.13;12.93;;;2.10;99.90;;;2.09;79.42;99609.19;5073015;28;20298;-72
2021/12/04 06:46:26;;;;;;;16.77;14.52;;;2.10;99.90;;;2.21;79.15;99613.13;5070708;28;20187;-71
2021/12/04 06:49:04;;;;;;;18.10;13.80;;;2.20;99.90;;;2.09;79.25;99612.69;5072848;28;20180;-72
2021/12/04 06:51:36;;;;;;;14.77;13.25;;;2.10;99.90;;;2.26;79.05;99609.91;5072547;28;20579;-73
2021/12/04 06:54:08;;;;;;;15.05;13.13;;;2.20;99.90;;;2.25;79.24;99616.25;5072538;28;20685;-73
2021/12/04 06:56:38;;;;;;;21.88;14.77;;;2.20;99.90;;;2.30;79.04;99622.72;5072378;28;20230;-73
2021/12/04 06:59:11;;;;;;;15.60;13.02;;;2.30;99.90;;;2.23;78.91;99620.97;5072782;28;20160;-73
2021/12/04 07:01:41;;;;;;;16.08;12.45;;;2.20;99.90;;;2.30;78.38;99620.03;5072359;28;20196;-73
2021/12/04 07:04:12;;;;;;;17.98;13.35;;;2.30;99.90;;;2.15;78.93;99617.34;5072787;28;20200;-71
2021/12/04 07:06:42;;;;;;;16.70;13.70;;;2.20;99.90;;;2.12;79.31;99608.88;5073351;28;20172;-72
2021/12/04 07:09:11;;;;;;;16.17;14.45;;;2.20;99.90;;;2.18;79.41;99611.63;5073116;28;20172;-72
2021/12/04 07:11:39;;;;;;;15.57;13.40;;;2.20;99.90;;;2.38;78.77;99606.63;5072590;28;20668;-72
2021/12/04 07:14:08;;;;;;;13.20;11.90;;;2.30;99.90;;;2.57;78.05;99607.94;5072725;28;20290;-72
2021/12/04 07:16:36;;;;;;;16.02;11.80;;;2.40;99.90;;;2.40;78.25;99609.13;5072873;28;20176;-72
2021/12/04 07:19:05;;;;;;;13.25;12.05;;;2.40;99.90;;;2.23;78.93;99610.28;5073281;28;20172;-73
2021/12/04 07:21:33;;;;;;;18.33;13.57;;;2.30;99.90;;;2.23;78.60;99615.63;5072886;28;20194;-72
2021/12/04 07:24:03;;;;;;;16.08;12.57;;;2.30;99.90;;;2.15;78.98;99619.16;5072743;28;20746;-72
2021/12/04 07:26:32;;;;;;;14.68;12.95;;;2.20;99.90;;;2.48;78.31;99609.03;5072979;28;20735;-72
2021/12/04 07:29:00;;;;;;;15.73;13.25;;;2.40;99.90;;;2.49;78.28;99611.53;5073291;28;20169;-72
2021/12/04 07:31:29;;;;;;;18.23;13.18;;;2.40;99.90;;;2.46;77.99;99603.06;5073595;28;20649;-72
2021/12/04 07:34:00;;;;;;;13.90;11.27;;;2.40;99.90;;;2.46;78.07;99605.72;5072925;28;20214;-72
2021/12/04 07:36:28;;;;;;;17.70;12.90;;;2.40;99.90;;;2.48;77.64;99611.69;5074110;28;20566;-73
2021/12/04 07:38:59;;;;;;;13.80;11.27;;;2.40;99.90;;;2.49;77.83;99608.88;5073380;28;20179;-72
2021/12/04 07:41:30;;;;;;;12.43;11.15;;;2.40;99.90;;;2.38;77.78;99616.47;5073522;28;20222;-73
2021/12/04 07:43:58;;;;;;;15.90;11.80;;;2.40;99.90;;;2.47;77.74;99612.75;5074064;28;20199;-72
2021/12/04 07:46:27;;;;;;;13.57;11.45;;;2.40;99.90;;;2.40;78.03;99617.13;5072091;28;20184;-72
2021/12/04 07:48:56;;;;;;;14.75;11.98;;;2.40;99.90;;;2.56;77.18;99617.00;5072979;28;20199;-72
2021/12/04 07:51:25;;;;;;;13.15;11.70;;;2.50;99.90;;;2.61;77.07;99619.94;5073588;28;20274;-74
2021/12/04 07:53:56;;;;;;;13.57;11.35;;;2.50;99.90;;;2.54;77.38;99621.66;5077441;28;20207;-73
2021/12/04 07:56:25;;;;;;;11.88;10.65;;;2.50;99.90;;;2.48;77.34;99617.03;5075937;28;20202;-72
2021/12/04 07:58:58;;;;;;;16.27;11.88;;;2.50;99.90;;;2.54;77.69;99619.00;5079738;28;20176;-73
2021/12/04 08:01:35;;;;;;;15.85;11.60;;;2.50;1.00;;;2.51;77.20;99620.19;5083032;28;20195;-72
2021/12/04 08:04:19;;;;;;;15.10;11.20;;;2.50;1.00;;;2.73;76.81;99623.81;5084682;28;20216;-73
2021/12/04 08:06:48;;;;;;;12.00;10.90;;;2.60;1.00;;;2.86;76.24;99626.66;5087218;28;20179;-73
2021/12/04 08:09:17;;;;;;;15.02;11.05;;;2.70;1.00;;;2.80;76.11;99622.09;5084697;28;20581;-72
2021/12/04 08:11:46;;;;;;;15.55;9.93;;;2.70;99.90;;;2.96;75.53;99624.56;5095416;22;20176;-71
2021/12/04 08:14:16;;;;;;;14.10;10.73;;;2.80;99.90;;;2.85;76.02;99622.38;5037305;28;20205;-73
2021/12/04 08:16:44;;;;;;;15.10;10.40;;;2.80;99.90;;;2.74;76.12;99620.13;5037406;28;20667;-73
2021/12/04 08:19:13;;;;;;;14.15;10.75;;;2.80;99.90;;;2.82;76.28;99622.72;5036718;28;20250;-73
2021/12/04 08:21:42;;;;;;;14.73;10.48;;;2.80;99.90;;;3.01;75.43;99616.81;5037332;28;20177;-73
2021/12/04 08:24:10;;;;;;;12.00;10.48;;;2.90;99.90;;;2.92;75.08;99617.94;5036442;28;20236;-73
2021/12/04 08:26:41;;;;;;;13.55;9.52;;;2.90;99.90;;;2.82;75.45;99614.69;5036469;28;20228;-72
2021/12/04 08:29:10;;;;;;;12.38;9.32;;;2.80;99.90;;;2.77;75.55;99619.75;5035919;28;20615;-73
2021/12/04 08:31:41;;;;;;;11.15;8.70;;;2.70;99.90;;;2.74;76.01;99630.00;5035990;28;20189;-73
2021/12/04 08:34:10;;;;;;;12.30;9.80;;;2.70;99.90;;;2.70;75.71;99640.22;5035774;28;20757;-73
2021/12/04 08:36:39;;;;;;;13.13;10.55;;;2.70;99.90;;;2.79;75.64;99632.94;5034778;28;20243;-73
2021/12/04 08:39:08;;;;;;;13.82;10.88;;;2.80;99.90;;;2.76;75.67;99638.66;5035674;28;20708;-72
2021/12/04 08:41:36;;;;;;;11.93;8.88;;;2.70;99.90;;;2.89;75.05;99631.66;5034610;28;20197;-72
2021/12/04 08:44:05;;;;;;;11.35;9.00;;;2.80;99.90;;;2.78;75.38;99621.41;5034120;28;20654;-72
2021/12/04 08:46:35;;;;;;;13.25;10.38;;;2.70;99.90;;;2.95;75.22;99633.59;5034417;28;20189;-73
2021/12/04 08:49:07;;;;;;;10.93;9.70;;;2.80;99.90;;;2.74;75.60;99636.16;5035188;28;20245;-75
2021/12/04 08:51:37;;;;;;;18.33;10.00;;;2.70;69.80;;;2.81;75.46;99631.72;5035342;28;20173;-73
2021/12/04 08:54:06;;;;;;;12.15;9.35;;;2.70;99.90;;;2.67;75.41;99623.69;5035043;28;20206;-73
2021/12/04 08:56:35;;;;;;;13.13;9.80;;;2.70;20.70;;;2.65;76.01;99633.75;5033779;28;20194;-74
2021/12/04 08:59:07;;;;;;;15.20;10.68;;;2.70;38.30;;;3.02;75.17;99634.53;5035021;28;20239;-71
2021/12/04 09:01:38;;;;;;;13.55;10.75;;;2.90;7.20;;;3.15;74.93;99641.09;5035325;28;20177;-73
2021/12/04 09:04:15;;;;;;;15.27;10.32;;;3.00;1.00;;;2.95;74.80;99641.59;5035165;28;20217;-72
2021/12/04 09:06:44;;;;;;;10.90;9.15;;;2.90;1.00;;;2.88;75.48;99632.69;5035273;28;20173;-73
2021/12/04 09:09:16;;;;;;;21.23;11.35;;;2.90;1.00;;;3.07;75.01;99636.63;5034999;28;20646;-74
2021/12/04 09:11:49;;;;;;;12.50;9.73;;;3.00;1.00;;;2.84;75.47;99636.72;5033889;28;20559;-74
2021/12/04 09:14:21;;;;;;;11.25;9.48;;;2.90;1.00;;;2.86;75.70;99640.03;5034917;28;20205;-73
2021/12/04 09:16:53;;;;;;;12.43;11.20;;;2.90;1.00;;;2.92;75.52;99644.66;5035378;28;20166;-74
2021/12/04 09:19:24;;;;;;;14.85;11.27;;;2.90;1.00;;;3.06;75.55;99651.84;5034797;28;20260;-73
2021/12/04 09:21:54;;;;;;;15.75;11.75;;;2.90;1.00;;;3.20;74.89;99652.84;5038546;28;20178;-75
2021/12/04 09:24:27;;;;;;;13.73;12.07;;;3.10;1.00;;;3.24;74.63;99653.34;5038897;28;20638;-72
2021/12/04 09:27:02;;;;;;;13.50;12.10;;;3.10;1.00;;;3.14;75.01;99647.44;5038201;28;20182;-72
2021/12/04 09:29:44;;;;;;;13.45;10.95;;;3.10;1.00;;;3.28;74.86;99649.28;5039763;28;20181;-72
2021/12/04 10:00:25;;;;;;;22.35;14.63;;;3.40;99.90;;;3.65;74.29;99638.41;5069182;28;20876;-74
2021/12/04 10:03:20;;;;;;;20.67;14.45;;;3.50;1.00;;;3.62;73.41;99630.78;5053685;28;20193;-74
2021/12/04 10:12:17;;;;;;;19.27;14.65;;;3.30;1.00;;;3.35;74.61;99607.38;5054111;28;20216;-72
2021/12/04 10:24:05;;;;;;;19.05;15.52;;;3.70;99.90;;;3.98;74.12;99592.44;5123845;27;20254;-72
2021/12/04 10:32:37;;;;;;;16.98;14.02;;;3.70;99.90;;;3.63;73.91;99594.97;5138025;27;20192;-73
2021/12/04 10:35:15;;;;;;;20.45;15.52;;;3.70;99.90;;;3.50;74.57;99600.16;5131555;27;20511;-70
2021/12/04 10:37:52;;;;;;;20.58;14.15;;;3.50;99.90;;;3.35;74.82;99594.84;5134199;28;20258;-73
2021/12/04 10:40:24;;;;;;;16.23;13.82;;;3.40;99.90;;;3.32;75.00;99591.72;5146158;27;20170;-75
2021/12/04 10:43:01;;;;;;;16.83;13.80;;;3.40;99.90;;;3.24;75.16;99587.31;5141369;28;20340;-72
2021/12/04 10:45:35;;;;;;;17.50;14.98;;;3.30;99.90;;;3.15;75.52;99579.59;5128624;27;20268;-78
2021/12/04 10:48:11;;;;;;;19.55;15.65;;;3.20;1.00;;;3.43;75.18;99584.06;5131496;27;20253;-75
2021/12/04 10:50:48;;;;;;;21.65;14.80;;;3.30;1.00;;;3.27;75.05;99578.09;5129811;28;20235;-73
2021/12/04 10:53:22;;;;;;;19.67;15.30;;;3.20;1.00;;;3.32;75.46;99571.16;5130376;27;20281;-72
2021/12/04 10:55:59;;;;;;;22.60;15.98;;;3.30;1.00;;;3.42;75.51;99569.03;5130827;28;20344;-73
2021/12/04 10:59:06;;;;;;;21.02;15.52;;;3.30;1.00;;;3.49;74.87;99564.56;5132009;28;20180;-73
2021/12/04 11:01:48;;;;;;;19.30;13.65;;;3.40;99.90;;;3.41;74.84;99553.16;5132205;27;20174;-74
2021/12/04 11:04:29;;;;;;;16.05;12.50;;;3.30;99.90;;;3.51;74.52;99548.34;5130061;27;20214;-72
2021/12/04 11:18:53;;;;;;;14.10;12.52;;;3.50;99.90;;;3.72;73.53;99540.34;5110472;28;20715;-72
2021/12/04 11:38:39;;;;;;;14.88;13.05;;;3.50;99.90;;;3.47;74.36;99520.31;5031191;28;20201;-72
2021/12/04 11:44:03;;;;;;;16.70;14.93;;;3.40;99.90;;;3.95;74.17;99502.66;5112180;28;20202;-72
2021/12/04 11:46:43;;;;;;;20.45;16.33;;;3.60;1.00;;;3.77;74.12;99508.50;5117278;28;20199;-73
2021/12/04 11:49:17;;;;;;;15.38;13.60;;;3.60;99.90;;;3.91;73.87;99506.75;5125805;28;20260;-73
2021/12/04 11:51:57;;;;;;;16.95;13.57;;;3.70;99.90;;;3.96;73.31;99508.84;5121310;28;20210;-72
2021/12/04 11:54:28;;;;;;;15.40;13.45;;;3.80;99.90;;;4.07;72.75;99510.97;5109686;28;20229;-71
2021/12/04 11:57:04;;;;;;;21.23;16.98;;;3.90;99.90;;;3.88;73.50;99510.63;5110112;28;20690;-71
2021/12/04 11:59:38;;;;;;;16.88;15.07;;;3.80;99.90;;;3.87;73.70;99506.28;5111450;28;20175;-72
2021/12/04 12:02:11;;;;;;;19.83;15.05;;;3.80;99.90;;;4.17;72.73;99506.13;5111080;28;20179;-72
2021/12/04 12:04:48;;;;;;;14.18;12.52;;;3.90;99.90;;;3.97;72.90;99497.94;5110293;28;20231;-74
2021/12/04 12:07:30;;;;;;;15.60;13.88;;;3.90;1.00;;;4.02;72.62;99494.72;5110791;28;20199;-73
2021/12/04 12:10:07;;;;;;;14.68;13.02;;;3.90;1.00;;;3.91;73.31;99491.53;5112293;28;20209;-72
2021/12/04 12:12:40;;;;;;;17.13;15.27;;;3.90;99.90;;;3.84;73.55;99493.31;5109173;28;20187;-72
2021/12/04 12:15:28;;;;;;;17.20;14.38;;;3.80;1.00;;;3.75;73.59;99486.44;5108224;28;20215;-72
2021/12/04 12:17:58;;;;;;;16.25;13.20;;;3.80;1.00;;;3.69;73.62;99483.69;5109509;28;20183;-72
2021/12/04 12:20:43;;;;;;;17.17;13.98;;;3.60;1.00;;;3.73;74.36;99483.13;5099152;28;20648;-72
2021/12/04 12:23:16;;;;;;;16.95;14.70;;;3.60;1.00;;;3.83;73.53;99483.63;5095334;28;20217;-72
2021/12/04 12:31:58;;;;;;;17.02;14.77;;;3.80;1.00;;;3.79;73.49;99477.00;5096269;28;20171;-73
2021/12/04 12:37:22;;;;;;;17.38;14.45;;;3.70;1.00;;;3.65;73.90;99477.91;5100605;28;20218;-74
2021/12/04 12:39:59;;;;;;;17.83;14.75;;;3.60;1.00;;;3.68;73.78;99463.34;5100432;28;20202;-74
2021/12/04 12:42:33;;;;;;;18.10;15.75;;;3.60;1.00;;;3.71;73.33;99471.81;5101816;28;20574;-71
2021/12/04 12:45:29;;;;;;;18.58;16.58;;;3.70;1.00;;;3.67;73.76;99467.84;5100492;28;20242;-73
2021/12/04 12:48:04;;;;;;;17.02;14.98;;;3.60;99.90;;;3.79;73.49;99473.50;5087257;28;20613;-71
2021/12/04 12:50:39;;;;;;;17.05;14.18;;;3.60;1.00;;;3.83;73.39;99467.56;5094941;28;20631;-73
2021/12/04 12:53:11;;;;;;;17.15;15.40;;;3.70;99.90;;;3.81;73.71;99471.47;5096517;28;20180;-72
2021/12/04 12:55:44;;;;;;;22.67;19.27;;;3.70;1.00;;;4.14;72.98;99464.53;5096349;28;20263;-72
2021/12/04 12:58:21;;;;;;;17.15;15.05;;;3.80;1.00;;;3.98;72.70;99464.81;5096402;28;20171;-73
2021/12/04 13:12:26;;;;;;;14.30;12.18;;;3.70;99.90;;;3.59;73.49;99469.81;5096485;28;20167;-72
2021/12/04 13:14:55;;;;;;;15.88;13.27;;;3.50;99.90;;;3.79;72.96;99479.69;5095709;28;20207;-72
2021/12/04 13:17:29;;;;;;;14.27;12.13;;;3.70;99.90;;;3.70;72.88;99475.50;5095759;28;20241;-72
2021/12/04 13:20:01;;;;;;;16.25;13.35;;;3.70;99.90;;;3.61;73.32;99476.63;5095754;28;20495;-74
2021/12/04 13:22:41;;;;;;;15.77;12.93;;;3.60;99.90;;;3.50;73.64;99487.84;5094362;28;20202;-74